Flight Track Log - Related Links

Times and Time Zones

All times are in EDT time to prevent confusion due to time zone crossing. See the N498QS flight status page for this flight to view local times or setup timezone preferences in your user account.

Time Position Orientation Groundspeed Altitude Reporting Facility
EDT Latitude Longitude Course Direction KTS MPH feet Rate Location/Type
Sat 11:06:32 AM 34.1500 -118.3833 148° Southeast 210 242 3,900  Level Southern California TRACON
Sat 11:07:38 AM 34.1500 -118.4500 270° West 236 272 7,000 1,550 Climbing Southern California TRACON
Sat 11:08:32 AM 34.2000 -118.4667 345° North 243 280 7,000 1,158 Level Southern California TRACON
Sat 11:09:32 AM 34.2667 -118.4667 360° North 254 292 9,200 1,737 Climbing Southern California TRACON
Sat 11:10:26 AM 34.3167 -118.4167 40° Northeast 295 339 10,300 947 Climbing Southern California TRACON
Sat 11:11:26 AM 34.2667 -118.3333 126° Southeast 335 386 11,000 368 Climbing Southern California TRACON
Sat 11:12:00 AM 33.8475 -118.0689 148° Southeast  Level FlightAware Approximate
Sat 11:12:20 AM 34.2000 -118.3000 158° South 410 472 11,000  Level Southern California TRACON
Sat 11:13:26 AM 34.1000 -118.2333 151° Southeast 339 390 11,000  Level Southern California TRACON
Sat 11:14:26 AM 34.0167 -118.1833 154° Southeast 352 405 11,000  Level Southern California TRACON
Sat 11:15:26 AM 33.9333 -118.1333 154° Southeast 340 391 11,000  Level Southern California TRACON
Sat 11:15:56 AM 33.9156 -118.1303 172° South 358 412 11,000  Level Los Angeles Center
Sat 11:16:26 AM 33.8333 -118.1000 163° South 340 391 11,000  Level Southern California TRACON
Sat 11:17:27 AM 33.7500 -118.0833 171° South 343 395 11,000  Level Southern California TRACON
Sat 11:18:27 AM 33.6500 -118.0667 172° South 339 390 11,000  Level Southern California TRACON
Sat 11:19:27 AM 33.5500 -118.0500 172° South 340 391 11,000  Level Southern California TRACON
Sat 11:20:03 AM 33.4981 -118.0353 167° South 345 397 11,000  Level Los Angeles Center
Sat 11:21:05 AM 33.4044 -118.0103 167° South 347 399 11,000  Level Los Angeles Center
Sat 11:22:07 AM 33.3453 -117.9197 128° Southeast 354 407 11,000  Level Los Angeles Center
Sat 11:23:09 AM 33.3025 -117.8142 116° Southeast 355 409 11,000  Level Los Angeles Center
Sat 11:24:23 AM 33.2489 -117.6889 117° Southeast 355 409 11,000  Level Los Angeles Center
Sat 11:25:23 AM 33.2000 -117.5667 116° Southeast 349 402 11,000  Level Southern California TRACON
Sat 11:26:24 AM 33.1500 -117.4667 121° Southeast 353 406 11,000 -48 Level Southern California TRACON
Sat 11:27:28 AM 33.0717 -117.3964 143° Southeast 353 406 10,900 -333 Descending Los Angeles Center
Sat 11:28:30 AM 32.9911 -117.3511 155° Southeast 331 381 10,300 -1,065 Descending Los Angeles Center
Sat 11:29:32 AM 32.9228 -117.3094 153° Southeast 292 336 8,700 -1,559 Descending Los Angeles Center
Sat 11:30:37 AM 32.8667 -117.2333 131° Southeast 274 315 7,000 -1,008 Descending Southern California TRACON
Sat 11:31:37 AM 32.8167 -117.1500 126° Southeast 259 298 6,600 -650 Descending Southern California TRACON
Sat 11:32:37 AM 32.7833 -117.1000 128° Southeast 215 247 5,700 -1,200 Descending Southern California TRACON
Sat 11:33:37 AM 32.7500 -117.0500 128° Southeast 197 227 4,200 -1,700 Descending Southern California TRACON
Sat 11:34:37 AM 32.7000 -117.0667 196° South 222 255 2,300 -1,429 Descending Southern California TRACON
Sat 11:35:43 AM 32.7167 -117.1167 292° West 160 184 1,200 -945 Descending Southern California TRACON
Sat 11:36:44 AM 32.7272 -117.1658 284° West 156 180 300 -537 Descending Los Angeles Center
Sat 11:37:46 AM 32.7389 -117.2125 287° West 154 177 100 -194 Descending Los Angeles Center

Login

Don't have an account? Register now (free) for customized features, flight alerts, and more!